createdAt,value
2022-10-04T00:00:16.980Z,1016.32
2022-10-04T00:01:16.979Z,1016.31
2022-10-04T00:02:17.040Z,1016.34
2022-10-04T00:03:16.998Z,1016.28
2022-10-04T00:04:16.929Z,1016.28
2022-10-04T00:05:16.922Z,1016.35
2022-10-04T00:06:16.972Z,1016.36
2022-10-04T00:07:16.905Z,1016.34
2022-10-04T00:08:16.908Z,1016.33
2022-10-04T00:09:16.904Z,1016.38
2022-10-04T00:10:16.876Z,1016.42
2022-10-04T00:11:16.871Z,1016.37
2022-10-04T00:12:16.857Z,1016.38
2022-10-04T00:13:16.831Z,1016.41
2022-10-04T00:14:16.835Z,1016.40
2022-10-04T00:15:16.809Z,1016.47
2022-10-04T00:16:16.874Z,1016.41
2022-10-04T00:17:16.788Z,1016.40
2022-10-04T00:18:16.783Z,1016.43
2022-10-04T00:19:16.765Z,1016.39
2022-10-04T00:20:16.819Z,1016.40
2022-10-04T00:21:16.745Z,1016.38
2022-10-04T00:22:16.732Z,1016.40
2022-10-04T00:23:16.739Z,1016.40
2022-10-04T00:24:16.710Z,1016.37
2022-10-04T00:25:16.701Z,1016.43
2022-10-04T00:26:16.692Z,1016.43
2022-10-04T00:27:16.696Z,1016.36
2022-10-04T00:28:16.744Z,1016.44
2022-10-04T00:29:17.386Z,1016.39
2022-10-04T00:30:16.648Z,1016.40
2022-10-04T00:31:16.705Z,1016.43
2022-10-04T00:32:16.636Z,1016.42
2022-10-04T00:33:16.617Z,1016.37
2022-10-04T00:34:16.602Z,1016.42
2022-10-04T00:35:16.594Z,1016.42
2022-10-04T00:36:16.583Z,1016.35
2022-10-04T00:37:16.584Z,1016.41
2022-10-04T00:38:16.558Z,1016.42
2022-10-04T00:39:16.551Z,1016.35
2022-10-04T00:40:16.540Z,1016.43
2022-10-04T00:41:16.533Z,1016.40
2022-10-04T00:42:16.530Z,1016.44
2022-10-04T00:43:16.578Z,1016.44
2022-10-04T00:44:16.496Z,1016.41
2022-10-04T00:45:16.486Z,1016.38
2022-10-04T00:46:16.526Z,1016.42
2022-10-04T00:47:16.490Z,1016.42
2022-10-04T00:48:16.451Z,1016.41
2022-10-04T00:49:16.444Z,1016.42
2022-10-04T00:50:16.432Z,1016.37
2022-10-04T00:51:16.420Z,1016.35
2022-10-04T00:52:16.410Z,1016.35
2022-10-04T00:53:16.410Z,1016.34
2022-10-04T00:54:16.389Z,1016.34
2022-10-04T00:55:16.376Z,1016.34
2022-10-04T00:56:16.371Z,1016.33
2022-10-04T00:57:16.362Z,1016.31
2022-10-04T00:58:16.355Z,1016.34
2022-10-04T00:59:16.350Z,1016.34
2022-10-04T01:00:16.328Z,1016.33
2022-10-04T01:01:16.446Z,1016.35
2022-10-04T01:02:16.380Z,1016.34
2022-10-04T01:03:16.309Z,1016.33
2022-10-04T01:04:16.278Z,1016.34
2022-10-04T01:05:16.271Z,1016.34
2022-10-04T01:06:16.260Z,1016.35
2022-10-04T01:07:16.251Z,1016.35
2022-10-04T01:08:16.249Z,1016.36
2022-10-04T01:09:16.227Z,1016.35
2022-10-04T01:10:16.213Z,1016.34
2022-10-04T01:11:16.204Z,1016.36
2022-10-04T01:12:16.191Z,1016.31
2022-10-04T01:13:16.233Z,1016.34
2022-10-04T01:14:16.172Z,1016.37
2022-10-04T01:15:16.177Z,1016.31
2022-10-04T01:16:16.205Z,1016.29
2022-10-04T01:17:16.138Z,1016.31
2022-10-04T01:18:16.140Z,1016.30
2022-10-04T01:19:16.140Z,1016.30
2022-10-04T01:20:16.111Z,1016.27
2022-10-04T01:21:16.101Z,1016.25
2022-10-04T01:22:16.083Z,1016.29
2022-10-04T01:23:16.091Z,1016.31
2022-10-04T01:24:16.066Z,1016.34
2022-10-04T01:25:16.051Z,1016.34
2022-10-04T01:26:16.039Z,1016.27
2022-10-04T01:27:16.030Z,1016.26
2022-10-04T01:28:16.127Z,1016.24
2022-10-04T01:29:16.009Z,1016.24
2022-10-04T01:30:15.997Z,1016.26
2022-10-04T01:31:16.068Z,1016.23
2022-10-04T01:32:15.977Z,1016.23
2022-10-04T01:33:15.976Z,1016.22
2022-10-04T01:34:15.955Z,1016.18
2022-10-04T01:35:15.943Z,1016.17
2022-10-04T01:36:15.931Z,1016.22
2022-10-04T01:37:15.923Z,1016.17
2022-10-04T01:38:15.918Z,1016.18
2022-10-04T01:39:15.903Z,1016.23
2022-10-04T01:40:15.887Z,1016.21
2022-10-04T01:41:15.877Z,1016.20
2022-10-04T01:42:15.869Z,1016.16
2022-10-04T01:43:15.866Z,1016.18
2022-10-04T01:44:15.844Z,1016.17
2022-10-04T01:45:15.836Z,1016.14
2022-10-04T01:46:15.857Z,1016.21
2022-10-04T01:47:15.845Z,1016.18
2022-10-04T01:48:15.801Z,1016.17
2022-10-04T01:49:15.791Z,1016.19
2022-10-04T01:50:16.108Z,1016.20
2022-10-04T01:51:15.768Z,1016.16
2022-10-04T01:52:15.769Z,1016.18
2022-10-04T01:53:15.747Z,1016.18
2022-10-04T01:54:15.738Z,1016.18
2022-10-04T01:55:15.730Z,1016.20
2022-10-04T01:56:15.715Z,1016.17
2022-10-04T01:57:15.716Z,1016.20
2022-10-04T01:58:15.692Z,1016.10
2022-10-04T01:59:15.683Z,1016.10
2022-10-04T02:00:15.672Z,1016.11
2022-10-04T02:01:15.690Z,1016.04
2022-10-04T02:02:15.662Z,1016.18
2022-10-04T02:03:15.659Z,1016.19
2022-10-04T02:04:18.604Z,1016.12
2022-10-04T02:05:16.619Z,1016.07
2022-10-04T02:06:15.607Z,1016.11
2022-10-04T02:07:15.612Z,1016.03
2022-10-04T02:08:15.586Z,1016.09
2022-10-04T02:09:15.577Z,1016.08
2022-10-04T02:10:15.567Z,1016.04
2022-10-04T02:11:15.553Z,1016.03
2022-10-04T02:12:15.557Z,1016.06
2022-10-04T02:13:15.530Z,1016.02
2022-10-04T02:14:15.521Z,1016.01
2022-10-04T02:15:15.508Z,1016.04
2022-10-04T02:16:15.537Z,1016.02
2022-10-04T02:17:15.499Z,1016.02
2022-10-04T02:18:15.478Z,1016.06
2022-10-04T02:19:15.482Z,1016.08
2022-10-04T02:20:15.463Z,1016.05
2022-10-04T02:21:15.447Z,1016.09
2022-10-04T02:22:15.448Z,1016.10
2022-10-04T02:23:15.422Z,1016.13
2022-10-04T02:24:15.414Z,1016.07
2022-10-04T02:25:15.401Z,1016.09
2022-10-04T02:26:15.391Z,1016.12
2022-10-04T02:27:15.386Z,1016.13
2022-10-04T02:28:15.426Z,1016.10
2022-10-04T02:29:15.356Z,1016.09
2022-10-04T02:30:15.361Z,1016.11
2022-10-04T02:31:15.378Z,1016.09
2022-10-04T02:32:15.339Z,1016.11
2022-10-04T02:33:15.316Z,1016.12
2022-10-04T02:34:15.304Z,1016.05
2022-10-04T02:35:15.310Z,1016.07
2022-10-04T02:36:15.285Z,1016.08
2022-10-04T02:37:15.342Z,1016.13
2022-10-04T02:38:15.262Z,1016.04
2022-10-04T02:39:15.249Z,1016.11
2022-10-04T02:40:15.259Z,1016.09
2022-10-04T02:41:15.230Z,1016.05
2022-10-04T02:42:15.248Z,1016.08
2022-10-04T02:43:15.205Z,1016.02
2022-10-04T02:44:15.194Z,1016.05
2022-10-04T02:45:15.183Z,1016.02
2022-10-04T02:46:15.285Z,1016.02
2022-10-04T02:47:15.178Z,1015.99
2022-10-04T02:48:15.155Z,1015.94
2022-10-04T02:49:15.144Z,1015.99
2022-10-04T02:50:15.130Z,1015.97
2022-10-04T02:51:15.240Z,1015.97
2022-10-04T02:52:15.120Z,1015.94
2022-10-04T02:53:15.098Z,1015.97
2022-10-04T02:54:15.090Z,1015.99
2022-10-04T02:55:15.076Z,1016.00
2022-10-04T02:56:15.068Z,1015.99
2022-10-04T02:57:15.069Z,1016.02
2022-10-04T02:58:15.045Z,1015.99
2022-10-04T02:59:15.042Z,1015.99
2022-10-04T03:00:15.020Z,1016.01
2022-10-04T03:01:15.081Z,1015.99
2022-10-04T03:02:15.123Z,1015.98
2022-10-04T03:03:14.993Z,1015.96
2022-10-04T03:04:15.023Z,1015.94
2022-10-04T03:05:14.980Z,1015.93
2022-10-04T03:06:14.956Z,1015.93
2022-10-04T03:07:14.972Z,1015.95
2022-10-04T03:08:14.935Z,1015.95
2022-10-04T03:09:14.922Z,1015.97
2022-10-04T03:10:14.915Z,1015.97
2022-10-04T03:11:14.901Z,1015.99
2022-10-04T03:12:14.904Z,1015.99
2022-10-04T03:13:14.879Z,1016.00
2022-10-04T03:14:14.871Z,1015.97
2022-10-04T03:15:14.857Z,1016.00
2022-10-04T03:16:14.887Z,1015.95
2022-10-04T03:17:14.846Z,1016.00
2022-10-04T03:18:14.831Z,1015.95
2022-10-04T03:19:14.814Z,1015.93
2022-10-04T03:20:14.810Z,1015.95
2022-10-04T03:21:14.794Z,1015.96
2022-10-04T03:22:14.797Z,1015.93
2022-10-04T03:23:14.787Z,1016.03
2022-10-04T03:24:14.761Z,1015.99
2022-10-04T03:25:14.748Z,1016.03
2022-10-04T03:26:14.739Z,1016.00
2022-10-04T03:27:14.736Z,1016.06
2022-10-04T03:28:14.754Z,1016.05
2022-10-04T03:29:14.706Z,1016.08
2022-10-04T03:30:14.697Z,1016.05
2022-10-04T03:31:14.787Z,1016.05
2022-10-04T03:32:14.685Z,1016.06
2022-10-04T03:33:14.667Z,1016.03
2022-10-04T03:34:14.656Z,1016.04
2022-10-04T03:35:14.641Z,1016.05
2022-10-04T03:36:14.633Z,1016.03
2022-10-04T03:37:14.630Z,1016.05
2022-10-04T03:38:14.614Z,1016.01
2022-10-04T03:39:14.614Z,1016.02
2022-10-04T03:40:14.593Z,1015.98
2022-10-04T03:41:14.574Z,1016.01
2022-10-04T03:42:14.581Z,1016.02
2022-10-04T03:43:14.552Z,1016.06
2022-10-04T03:44:14.547Z,1016.03
2022-10-04T03:45:14.531Z,1016.03
2022-10-04T03:46:14.628Z,1016.05
2022-10-04T03:47:14.520Z,1016.07
2022-10-04T03:48:14.505Z,1016.09
2022-10-04T03:49:14.493Z,1016.07
2022-10-04T03:50:14.479Z,1016.05
2022-10-04T03:51:14.466Z,1016.09
2022-10-04T03:52:14.472Z,1016.06
2022-10-04T03:53:14.451Z,1016.03
2022-10-04T03:54:14.437Z,1016.03
2022-10-04T03:55:14.442Z,1016.08
2022-10-04T03:56:14.417Z,1016.05
2022-10-04T03:57:14.418Z,1016.08
2022-10-04T03:58:14.390Z,1016.06
2022-10-04T03:59:14.383Z,1016.06
2022-10-04T04:00:14.369Z,1016.04
2022-10-04T04:01:14.416Z,1016.07
2022-10-04T04:02:14.466Z,1016.09
2022-10-04T04:03:14.338Z,1016.04
2022-10-04T04:04:14.325Z,1016.04
2022-10-04T04:05:14.318Z,1016.04
2022-10-04T04:06:14.306Z,1016.03
2022-10-04T04:07:14.305Z,1016.06
2022-10-04T04:08:14.281Z,1016.08
2022-10-04T04:09:14.270Z,1016.10
2022-10-04T04:10:16.810Z,1016.11
2022-10-04T04:11:14.266Z,1016.11
2022-10-04T04:12:14.252Z,1016.17
2022-10-04T04:13:14.227Z,1016.12
2022-10-04T04:14:14.217Z,1016.14
2022-10-04T04:15:14.208Z,1016.14
2022-10-04T04:16:14.278Z,1016.19
2022-10-04T04:17:14.196Z,1016.15
2022-10-04T04:18:14.174Z,1016.16
2022-10-04T04:19:14.163Z,1016.20
2022-10-04T04:20:14.150Z,1016.18
2022-10-04T04:21:14.140Z,1016.18
2022-10-04T04:22:14.146Z,1016.19
2022-10-04T04:23:14.117Z,1016.17
2022-10-04T04:24:14.110Z,1016.19
2022-10-04T04:25:14.176Z,1016.17
2022-10-04T04:26:14.090Z,1016.20
2022-10-04T04:27:14.105Z,1016.18
2022-10-04T04:28:14.212Z,1016.18
2022-10-04T04:29:14.051Z,1016.14
2022-10-04T04:30:14.043Z,1016.11
2022-10-04T04:31:14.059Z,1016.17
2022-10-04T04:32:14.032Z,1016.14
2022-10-04T04:33:15.692Z,1016.17
2022-10-04T04:34:14.002Z,1016.10
2022-10-04T04:35:13.987Z,1016.16
2022-10-04T04:36:13.980Z,1016.11
2022-10-04T04:37:13.979Z,1016.14
2022-10-04T04:38:13.955Z,1016.13
2022-10-04T04:39:13.944Z,1016.17
2022-10-04T04:40:13.935Z,1016.17
2022-10-04T04:41:13.921Z,1016.16
2022-10-04T04:42:13.922Z,1016.17
2022-10-04T04:43:13.920Z,1016.18
2022-10-04T04:44:13.891Z,1016.18
2022-10-04T04:45:13.880Z,1016.17
2022-10-04T04:46:27.273Z,1016.13
2022-10-04T04:47:18.124Z,1016.18
2022-10-04T04:48:13.849Z,1016.15
2022-10-04T04:49:13.836Z,1016.18
2022-10-04T04:50:13.832Z,1016.17
2022-10-04T04:51:13.812Z,1016.22
2022-10-04T04:52:13.827Z,1016.18
2022-10-04T04:53:13.792Z,1016.20
2022-10-04T04:54:13.789Z,1016.16
2022-10-04T04:55:13.772Z,1016.20
2022-10-04T04:56:17.452Z,1016.21
2022-10-04T04:57:13.752Z,1016.18
2022-10-04T04:58:13.754Z,1016.23
2022-10-04T04:59:13.746Z,1016.21
2022-10-04T05:00:13.717Z,1016.18
2022-10-04T05:01:13.788Z,1016.22
2022-10-04T05:02:13.822Z,1016.20
2022-10-04T05:03:13.694Z,1016.27
2022-10-04T05:04:13.680Z,1016.23
2022-10-04T05:05:13.671Z,1016.26
2022-10-04T05:06:13.656Z,1016.28
2022-10-04T05:07:13.654Z,1016.29
2022-10-04T05:08:13.644Z,1016.28
2022-10-04T05:09:13.618Z,1016.26
2022-10-04T05:10:13.608Z,1016.24
2022-10-04T05:11:13.594Z,1016.25
2022-10-04T05:12:13.587Z,1016.26
2022-10-04T05:13:13.588Z,1016.21
2022-10-04T05:14:13.564Z,1016.24
2022-10-04T05:15:15.347Z,1016.25
2022-10-04T05:16:13.590Z,1016.22
2022-10-04T05:17:13.548Z,1016.24
2022-10-04T05:18:13.556Z,1016.19
2022-10-04T05:19:13.508Z,1016.23
2022-10-04T05:20:13.500Z,1016.29
2022-10-04T05:21:13.524Z,1016.27
2022-10-04T05:22:13.477Z,1016.28
2022-10-04T05:23:13.476Z,1016.28
2022-10-04T05:24:13.456Z,1016.23
2022-10-04T05:25:13.446Z,1016.28
2022-10-04T05:26:13.434Z,1016.31
2022-10-04T05:27:13.439Z,1016.26
2022-10-04T05:28:13.468Z,1016.28
2022-10-04T05:29:13.399Z,1016.30
2022-10-04T05:30:13.391Z,1016.34
2022-10-04T05:31:13.446Z,1016.29
2022-10-04T05:32:13.487Z,1016.27
2022-10-04T05:33:13.368Z,1016.31
2022-10-04T05:34:13.346Z,1016.29
2022-10-04T05:35:13.333Z,1016.30
2022-10-04T05:36:13.322Z,1016.34
2022-10-04T05:37:13.316Z,1016.35
2022-10-04T05:38:13.326Z,1016.31
2022-10-04T05:39:13.294Z,1016.32
2022-10-04T05:40:13.284Z,1016.30
2022-10-04T05:41:13.273Z,1016.30
2022-10-04T05:42:13.258Z,1016.30
2022-10-04T05:43:13.258Z,1016.27
2022-10-04T05:44:13.236Z,1016.27
2022-10-04T05:45:13.229Z,1016.29
2022-10-04T05:46:13.254Z,1016.27
2022-10-04T05:47:13.221Z,1016.30
2022-10-04T05:48:13.210Z,1016.25
2022-10-04T05:49:18.167Z,1016.26
2022-10-04T05:50:14.171Z,1016.26
2022-10-04T05:51:13.160Z,1016.27
2022-10-04T05:52:13.158Z,1016.31
2022-10-04T05:53:13.152Z,1016.33
2022-10-04T05:54:13.130Z,1016.34
2022-10-04T05:55:13.204Z,1016.33
2022-10-04T05:56:13.116Z,1016.34
2022-10-04T05:57:13.118Z,1016.38
2022-10-04T05:58:13.097Z,1016.36
2022-10-04T05:59:13.073Z,1016.40
2022-10-04T06:00:13.063Z,1016.38
2022-10-04T06:01:13.140Z,1016.39
2022-10-04T06:02:13.107Z,1016.38
2022-10-04T06:03:13.061Z,1016.34
2022-10-04T06:04:13.020Z,1016.39
2022-10-04T06:05:13.012Z,1016.37
2022-10-04T06:06:13.011Z,1016.44
2022-10-04T06:07:12.991Z,1016.45
2022-10-04T06:08:12.995Z,1016.45
2022-10-04T06:09:12.966Z,1016.44
2022-10-04T06:10:12.955Z,1016.44
2022-10-04T06:11:12.945Z,1016.41
2022-10-04T06:12:12.935Z,1016.45
2022-10-04T06:13:12.936Z,1016.44
2022-10-04T06:14:12.913Z,1016.42
2022-10-04T06:15:12.900Z,1016.42
2022-10-04T06:16:12.950Z,1016.41
2022-10-04T06:17:12.881Z,1016.41
2022-10-04T06:18:12.885Z,1016.39
2022-10-04T06:19:12.877Z,1016.38
2022-10-04T06:20:12.848Z,1016.41
2022-10-04T06:21:12.837Z,1016.39
2022-10-04T06:22:12.828Z,1016.40
2022-10-04T06:23:12.831Z,1016.42
2022-10-04T06:24:12.806Z,1016.40
2022-10-04T06:25:12.795Z,1016.39
2022-10-04T06:26:12.783Z,1016.45
2022-10-04T06:27:12.771Z,1016.44
2022-10-04T06:28:12.785Z,1016.44
2022-10-04T06:29:18.346Z,1016.45
2022-10-04T06:30:12.737Z,1016.48
2022-10-04T06:31:12.780Z,1016.49
2022-10-04T06:32:12.730Z,1016.50
2022-10-04T06:33:12.728Z,1016.48
2022-10-04T06:34:12.694Z,1016.47
2022-10-04T06:35:12.703Z,1016.51
2022-10-04T06:36:12.672Z,1016.50
2022-10-04T06:37:12.663Z,1016.50
2022-10-04T06:38:12.666Z,1016.54
2022-10-04T06:39:12.642Z,1016.53
2022-10-04T06:40:12.630Z,1016.55
2022-10-04T06:41:12.673Z,1016.55
2022-10-04T06:42:12.609Z,1016.56
2022-10-04T06:43:12.614Z,1016.55
2022-10-04T06:44:12.585Z,1016.59
2022-10-04T06:45:12.579Z,1016.59
2022-10-04T06:46:12.618Z,1016.59
2022-10-04T06:47:12.555Z,1016.66
2022-10-04T06:48:12.558Z,1016.70
2022-10-04T06:49:12.534Z,1016.72
2022-10-04T06:50:12.520Z,1016.74
2022-10-04T06:51:12.529Z,1016.66
2022-10-04T06:52:16.730Z,1016.70
2022-10-04T06:53:12.501Z,1016.76
2022-10-04T06:54:12.477Z,1016.79
2022-10-04T06:55:12.471Z,1016.80
2022-10-04T06:56:12.458Z,1016.79
2022-10-04T06:57:12.454Z,1016.81
2022-10-04T06:58:12.457Z,1016.82
2022-10-04T06:59:12.426Z,1016.81
2022-10-04T07:00:12.413Z,1016.85
2022-10-04T07:01:12.442Z,1016.82
2022-10-04T07:02:12.447Z,1016.83
2022-10-04T07:03:12.423Z,1016.82
2022-10-04T07:04:12.369Z,1016.79
2022-10-04T07:05:12.361Z,1016.82
2022-10-04T07:06:12.347Z,1016.78
2022-10-04T07:07:12.452Z,1016.77
2022-10-04T07:08:12.369Z,1016.77
2022-10-04T07:09:12.345Z,1016.76
2022-10-04T07:10:12.309Z,1016.78
2022-10-04T07:11:12.559Z,1016.84
2022-10-04T07:12:12.286Z,1016.84
2022-10-04T07:13:12.286Z,1016.82
2022-10-04T07:14:12.271Z,1016.84
2022-10-04T07:15:12.255Z,1016.85
2022-10-04T07:16:12.311Z,1016.88
2022-10-04T07:17:12.232Z,1016.89
2022-10-04T07:18:12.233Z,1016.89
2022-10-04T07:19:12.208Z,1016.93
2022-10-04T07:20:12.202Z,1016.90
2022-10-04T07:21:12.187Z,1016.92
2022-10-04T07:22:12.183Z,1016.93
2022-10-04T07:23:12.190Z,1016.85
2022-10-04T07:24:12.191Z,1016.80
2022-10-04T07:25:12.144Z,1016.83
2022-10-04T07:26:12.134Z,1016.85
2022-10-04T07:27:12.122Z,1016.88
2022-10-04T07:28:12.216Z,1016.89
2022-10-04T07:29:12.104Z,1016.89
2022-10-04T07:30:12.090Z,1016.91
2022-10-04T07:31:12.187Z,1016.90
2022-10-04T07:32:12.071Z,1016.94
2022-10-04T07:33:12.069Z,1016.94
2022-10-04T07:34:12.066Z,1016.94
2022-10-04T07:35:12.034Z,1016.96
2022-10-04T07:36:12.023Z,1016.93
2022-10-04T07:37:12.014Z,1016.95
2022-10-04T07:38:12.030Z,1016.93
2022-10-04T07:39:12.104Z,1016.95
2022-10-04T07:40:11.980Z,1016.95
2022-10-04T07:41:11.976Z,1016.94
2022-10-04T07:42:11.956Z,1016.95
2022-10-04T07:43:11.957Z,1016.98
2022-10-04T07:44:11.951Z,1017.01
2022-10-04T07:45:11.927Z,1017.02
2022-10-04T07:46:11.977Z,1017.00
2022-10-04T07:47:11.922Z,1017.03
2022-10-04T07:48:11.910Z,1017.02
2022-10-04T07:49:11.883Z,1017.05
2022-10-04T07:50:11.870Z,1017.03
2022-10-04T07:51:11.880Z,1017.02
2022-10-04T07:52:11.847Z,1016.99
2022-10-04T07:53:11.850Z,1017.04
2022-10-04T07:54:11.829Z,1017.07
2022-10-04T07:55:11.877Z,1017.08
2022-10-04T07:56:11.804Z,1017.11
2022-10-04T07:57:11.794Z,1017.09
2022-10-04T07:58:11.793Z,1017.13
2022-10-04T07:59:11.775Z,1017.13
2022-10-04T08:00:11.762Z,1017.12
2022-10-04T08:01:11.759Z,1017.11
2022-10-04T08:02:11.891Z,1017.16
2022-10-04T08:03:11.807Z,1017.17
2022-10-04T08:04:11.717Z,1017.16
2022-10-04T08:05:11.708Z,1017.15
2022-10-04T08:06:11.694Z,1017.20
2022-10-04T08:07:11.711Z,1017.19
2022-10-04T08:08:11.694Z,1017.21
2022-10-04T08:09:11.664Z,1017.19
2022-10-04T08:10:11.654Z,1017.21
2022-10-04T08:11:11.661Z,1017.24
2022-10-04T08:12:11.630Z,1017.23
2022-10-04T08:13:11.632Z,1017.23
2022-10-04T08:14:11.606Z,1017.25
2022-10-04T08:15:11.596Z,1017.29
2022-10-04T08:16:11.721Z,1017.32
2022-10-04T08:17:15.462Z,1017.29
2022-10-04T08:18:11.571Z,1017.30
2022-10-04T08:19:11.555Z,1017.36
2022-10-04T08:20:11.544Z,1017.33
2022-10-04T08:21:11.531Z,1017.35
2022-10-04T08:22:11.523Z,1017.38
2022-10-04T08:23:11.518Z,1017.43
2022-10-04T08:24:11.513Z,1017.38
2022-10-04T08:25:11.489Z,1017.36
2022-10-04T08:26:11.490Z,1017.32
2022-10-04T08:27:11.488Z,1017.34
2022-10-04T08:28:11.537Z,1017.36
2022-10-04T08:29:11.444Z,1017.35
2022-10-04T08:30:11.444Z,1017.37
2022-10-04T08:31:11.528Z,1017.35
2022-10-04T08:32:11.408Z,1017.36
2022-10-04T08:33:11.425Z,1017.37
2022-10-04T08:34:11.387Z,1017.33
2022-10-04T08:35:11.383Z,1017.36
2022-10-04T08:36:11.366Z,1017.36
2022-10-04T08:37:11.367Z,1017.34
2022-10-04T08:38:11.350Z,1017.39
2022-10-04T08:39:11.339Z,1017.37
2022-10-04T08:40:13.304Z,1017.38
2022-10-04T08:41:11.364Z,1017.40
2022-10-04T08:42:11.317Z,1017.42
2022-10-04T08:43:11.308Z,1017.44
2022-10-04T08:44:11.288Z,1017.42
2022-10-04T08:45:11.272Z,1017.33
2022-10-04T08:46:11.404Z,1017.35
2022-10-04T08:47:11.263Z,1017.37
2022-10-04T08:48:11.237Z,1017.36
2022-10-04T08:49:11.234Z,1017.38
2022-10-04T08:50:11.217Z,1017.37
2022-10-04T08:51:11.208Z,1017.34
2022-10-04T08:52:11.465Z,1017.37
2022-10-04T08:53:11.307Z,1017.34
2022-10-04T08:54:11.171Z,1017.35
2022-10-04T08:55:11.164Z,1017.34
2022-10-04T08:56:11.152Z,1017.41
2022-10-04T08:57:15.673Z,1017.36
2022-10-04T08:58:12.130Z,1017.40
2022-10-04T08:59:11.140Z,1017.37
2022-10-04T09:00:11.107Z,1017.39
2022-10-04T09:01:11.112Z,1017.38
2022-10-04T09:02:11.125Z,1017.38
2022-10-04T09:03:11.078Z,1017.33
2022-10-04T09:04:11.144Z,1017.38
2022-10-04T09:05:11.058Z,1017.35
2022-10-04T09:06:11.046Z,1017.33
2022-10-04T09:07:11.046Z,1017.35
2022-10-04T09:08:11.024Z,1017.32
2022-10-04T09:09:11.015Z,1017.28
2022-10-04T09:10:11.002Z,1017.31
2022-10-04T09:11:10.992Z,1017.36
2022-10-04T09:12:10.990Z,1017.28
2022-10-04T09:13:10.974Z,1017.35
2022-10-04T09:14:10.971Z,1017.33
2022-10-04T09:15:10.977Z,1017.30
2022-10-04T09:16:11.028Z,1017.29
2022-10-04T09:17:10.939Z,1017.32
2022-10-04T09:18:10.913Z,1017.31
2022-10-04T09:19:10.909Z,1017.38
2022-10-04T09:20:36.813Z,1017.36
2022-10-04T09:21:11.884Z,1017.36
2022-10-04T09:22:10.880Z,1017.37
2022-10-04T09:23:10.862Z,1017.33
2022-10-04T09:24:10.850Z,1017.41
2022-10-04T09:25:10.838Z,1017.40
2022-10-04T09:26:10.830Z,1017.31
2022-10-04T09:27:10.831Z,1017.31
2022-10-04T09:28:11.135Z,1017.28
2022-10-04T09:29:10.796Z,1017.37
2022-10-04T09:30:10.788Z,1017.44
2022-10-04T09:31:10.916Z,1017.32
2022-10-04T09:32:10.779Z,1017.31
2022-10-04T09:33:10.780Z,1017.36
2022-10-04T09:34:10.767Z,1017.34
2022-10-04T09:35:10.731Z,1017.33
2022-10-04T09:36:10.721Z,1017.39
2022-10-04T09:37:10.749Z,1017.36
2022-10-04T09:38:10.721Z,1017.40
2022-10-04T09:39:29.570Z,1017.41
2022-10-04T09:40:11.675Z,1017.46
2022-10-04T09:41:10.674Z,1017.47
2022-10-04T09:42:10.672Z,1017.42
2022-10-04T09:43:10.720Z,1017.41
2022-10-04T09:44:10.633Z,1017.45
2022-10-04T09:45:10.629Z,1017.40
2022-10-04T09:46:10.708Z,1017.38
2022-10-04T09:47:10.637Z,1017.41
2022-10-04T09:48:10.590Z,1017.41
2022-10-04T09:49:10.611Z,1017.37
2022-10-04T09:50:10.570Z,1017.41
2022-10-04T09:51:10.567Z,1017.37
2022-10-04T09:52:10.562Z,1017.36
2022-10-04T09:53:10.537Z,1017.39
2022-10-04T09:54:10.530Z,1017.36
2022-10-04T09:55:10.536Z,1017.37
2022-10-04T09:56:10.508Z,1017.39
2022-10-04T09:57:10.505Z,1017.40
2022-10-04T09:58:10.482Z,1017.34
2022-10-04T09:59:10.474Z,1017.35
2022-10-04T10:00:10.460Z,1017.36
2022-10-04T10:01:10.452Z,1017.35
2022-10-04T10:02:10.451Z,1017.36
2022-10-04T10:03:14.905Z,1017.36
2022-10-04T10:04:11.414Z,1017.28
2022-10-04T10:05:10.443Z,1017.30
2022-10-04T10:06:10.393Z,1017.27
2022-10-04T10:07:10.395Z,1017.26
2022-10-04T10:08:10.388Z,1017.30
2022-10-04T10:09:10.382Z,1017.26
2022-10-04T10:10:10.352Z,1017.27
2022-10-04T10:11:10.344Z,1017.27
2022-10-04T10:12:10.343Z,1017.28
2022-10-04T10:13:10.318Z,1017.26
2022-10-04T10:14:10.305Z,1017.31
2022-10-04T10:15:10.294Z,1017.28
2022-10-04T10:16:10.400Z,1017.28
2022-10-04T10:17:10.288Z,1017.29
2022-10-04T10:18:10.261Z,1017.30
2022-10-04T10:19:10.342Z,1017.32
2022-10-04T10:20:10.241Z,1017.36
2022-10-04T10:21:10.230Z,1017.32
2022-10-04T10:22:10.229Z,1017.35
2022-10-04T10:23:10.207Z,1017.30
2022-10-04T10:24:10.198Z,1017.27
2022-10-04T10:25:10.186Z,1017.29
2022-10-04T10:26:10.173Z,1017.28
2022-10-04T10:27:10.172Z,1017.27
2022-10-04T10:28:10.221Z,1017.28
2022-10-04T10:29:10.138Z,1017.27
2022-10-04T10:30:10.148Z,1017.32
2022-10-04T10:31:10.172Z,1017.35
2022-10-04T10:32:10.134Z,1017.28
2022-10-04T10:33:10.099Z,1017.33
2022-10-04T10:34:10.087Z,1017.32
2022-10-04T10:35:10.148Z,1017.27
2022-10-04T10:36:10.068Z,1017.32
2022-10-04T10:37:10.058Z,1017.30
2022-10-04T10:38:10.062Z,1017.32
2022-10-04T10:39:10.031Z,1017.36
2022-10-04T10:40:10.019Z,1017.40
2022-10-04T10:41:10.008Z,1017.40
2022-10-04T10:42:09.997Z,1017.36
2022-10-04T10:43:10.003Z,1017.37
2022-10-04T10:44:09.976Z,1017.43
2022-10-04T10:45:09.965Z,1017.34
2022-10-04T10:46:10.018Z,1017.32
2022-10-04T10:47:09.940Z,1017.29
2022-10-04T10:48:09.942Z,1017.30
2022-10-04T10:49:09.923Z,1017.27
2022-10-04T10:50:09.908Z,1017.31
2022-10-04T10:51:09.914Z,1017.30
2022-10-04T10:52:09.887Z,1017.26
2022-10-04T10:53:09.884Z,1017.26
2022-10-04T10:54:09.868Z,1017.28
2022-10-04T10:55:09.856Z,1017.29
2022-10-04T10:56:09.847Z,1017.29
2022-10-04T10:57:09.830Z,1017.31
2022-10-04T10:58:09.832Z,1017.30
2022-10-04T10:59:09.809Z,1017.32
2022-10-04T11:00:09.800Z,1017.27
2022-10-04T11:01:09.788Z,1017.31
2022-10-04T11:02:09.878Z,1017.30
2022-10-04T11:03:13.672Z,1017.33
2022-10-04T11:04:09.820Z,1017.35
2022-10-04T11:05:09.745Z,1017.33
2022-10-04T11:06:09.736Z,1017.32
2022-10-04T11:07:09.738Z,1017.33
2022-10-04T11:08:09.725Z,1017.26
2022-10-04T11:09:09.704Z,1017.31
2022-10-04T11:10:09.739Z,1017.29
2022-10-04T11:11:09.682Z,1017.28
2022-10-04T11:12:09.673Z,1017.32
2022-10-04T11:13:09.671Z,1017.33
2022-10-04T11:14:09.650Z,1017.32
2022-10-04T11:15:09.638Z,1017.30
2022-10-04T11:16:09.743Z,1017.33
2022-10-04T11:17:09.616Z,1017.29
2022-10-04T11:18:09.624Z,1017.32
2022-10-04T11:19:09.608Z,1017.35
2022-10-04T11:20:09.603Z,1017.33
2022-10-04T11:21:09.570Z,1017.37
2022-10-04T11:22:09.567Z,1017.41
2022-10-04T11:23:09.579Z,1017.38
2022-10-04T11:24:09.538Z,1017.39
2022-10-04T11:25:09.527Z,1017.38
2022-10-04T11:26:09.517Z,1017.37
2022-10-04T11:27:09.505Z,1017.37
2022-10-04T11:28:09.534Z,1017.34
2022-10-04T11:29:09.490Z,1017.28
2022-10-04T11:30:09.639Z,1017.29
2022-10-04T11:31:09.522Z,1017.29
2022-10-04T11:32:09.457Z,1017.23
2022-10-04T11:33:09.474Z,1017.18
2022-10-04T11:34:12.146Z,1017.19
2022-10-04T11:35:10.420Z,1017.15
2022-10-04T11:36:09.412Z,1017.15
2022-10-04T11:37:09.399Z,1017.16
2022-10-04T11:38:09.419Z,1017.15
2022-10-04T11:39:09.400Z,1017.09
2022-10-04T11:40:09.448Z,1017.18
2022-10-04T11:41:09.356Z,1017.16
2022-10-04T11:42:09.349Z,1017.16
2022-10-04T11:43:09.352Z,1017.11
2022-10-04T11:44:09.330Z,1017.16
2022-10-04T11:45:09.315Z,1017.13
2022-10-04T11:46:11.017Z,1017.11
2022-10-04T11:47:09.362Z,1017.15
2022-10-04T11:48:09.301Z,1017.14
2022-10-04T11:49:09.276Z,1017.14
2022-10-04T11:50:09.346Z,1017.12
2022-10-04T11:51:09.330Z,1017.10
2022-10-04T11:52:09.243Z,1017.04
2022-10-04T11:53:09.275Z,1017.03
2022-10-04T11:54:09.222Z,1017.04
2022-10-04T11:55:09.229Z,1017.04
2022-10-04T11:56:09.220Z,1017.01
2022-10-04T11:57:09.193Z,1016.98
2022-10-04T11:58:12.067Z,1016.98
2022-10-04T11:59:09.207Z,1016.98
2022-10-04T12:00:09.157Z,1017.00
2022-10-04T12:01:09.152Z,1016.94
2022-10-04T12:02:09.169Z,1017.01
2022-10-04T12:03:09.186Z,1016.99
2022-10-04T12:04:09.211Z,1016.99
2022-10-04T12:05:09.113Z,1017.08